createdAt,value
2022-12-26T00:00:54.533Z,17.10
2022-12-26T00:03:28.050Z,18.33
2022-12-26T00:06:02.633Z,18.17
2022-12-26T00:08:35.613Z,17.08
2022-12-26T00:11:09.180Z,18.15
2022-12-26T00:13:50.451Z,17.05
2022-12-26T00:16:26.908Z,17.40
2022-12-26T00:19:00.205Z,20.00
2022-12-26T00:21:35.571Z,19.33
2022-12-26T00:24:12.020Z,18.52
2022-12-26T00:26:48.256Z,17.70
2022-12-26T00:29:22.901Z,17.13
2022-12-26T00:31:58.174Z,18.23
2022-12-26T00:34:31.473Z,19.45
2022-12-26T00:37:06.291Z,18.02
2022-12-26T00:39:42.031Z,18.00
2022-12-26T00:42:15.128Z,18.02
2022-12-26T00:44:48.327Z,19.10
2022-12-26T00:47:21.899Z,16.98
2022-12-26T00:50:13.707Z,17.98
2022-12-26T00:55:23.052Z,16.40
2022-12-26T00:57:56.438Z,16.52
2022-12-26T01:00:29.768Z,15.25
2022-12-26T01:03:03.345Z,16.65
2022-12-26T01:05:42.038Z,17.52
2022-12-26T01:08:22.470Z,16.88
2022-12-26T01:10:57.621Z,16.10
2022-12-26T01:13:42.307Z,15.40
2022-12-26T01:16:15.314Z,15.65
2022-12-26T01:21:22.304Z,15.35
2022-12-26T01:23:59.331Z,16.77
2022-12-26T01:26:32.755Z,15.10
2022-12-26T01:29:06.323Z,14.73
2022-12-26T01:31:39.991Z,14.93
2022-12-26T01:34:13.397Z,13.65
2022-12-26T01:36:46.794Z,15.02
2022-12-26T01:39:21.934Z,14.10
2022-12-26T01:41:55.152Z,14.60
2022-12-26T01:44:59.119Z,13.80
2022-12-26T01:47:43.359Z,14.32
2022-12-26T01:50:28.959Z,13.02
2022-12-26T01:53:07.184Z,13.30
2022-12-26T01:55:42.757Z,13.52
2022-12-26T01:58:21.410Z,12.55
2022-12-26T02:00:55.745Z,13.02
2022-12-26T02:03:46.492Z,15.07
2022-12-26T02:06:19.563Z,12.98
2022-12-26T02:11:34.011Z,13.75
2022-12-26T02:14:08.916Z,13.45
2022-12-26T02:16:43.380Z,11.57
2022-12-26T02:19:30.303Z,12.52
2022-12-26T02:22:25.719Z,12.82
2022-12-26T02:25:27.805Z,13.05
2022-12-26T02:28:30.349Z,12.30
2022-12-26T02:31:10.600Z,13.32
2022-12-26T02:34:02.711Z,12.55
2022-12-26T02:36:48.253Z,12.55
2022-12-26T02:39:43.580Z,12.13
2022-12-26T02:42:29.716Z,11.52
2022-12-26T02:48:08.415Z,12.55
2022-12-26T02:51:17.164Z,12.13
2022-12-26T02:54:22.997Z,12.23
2022-12-26T02:57:21.686Z,12.75
2022-12-26T03:00:17.603Z,11.23
2022-12-26T03:03:12.485Z,11.73
2022-12-26T03:06:15.730Z,11.80
2022-12-26T03:09:11.324Z,13.07
2022-12-26T03:12:04.496Z,12.98
2022-12-26T03:14:45.095Z,12.60
2022-12-26T03:17:29.506Z,13.10
2022-12-26T03:20:07.221Z,11.25
2022-12-26T03:22:45.000Z,11.27
2022-12-26T03:25:43.790Z,11.60
2022-12-26T03:28:17.137Z,11.45
2022-12-26T03:30:49.998Z,11.25
2022-12-26T03:33:43.551Z,11.40
2022-12-26T03:36:26.424Z,11.15
2022-12-26T03:39:10.735Z,9.82
2022-12-26T03:42:11.618Z,9.18
2022-12-26T03:45:11.423Z,9.52
2022-12-26T03:48:08.986Z,9.73
2022-12-26T03:51:04.162Z,10.20
2022-12-26T03:54:01.965Z,9.68
2022-12-26T03:56:59.021Z,7.93
2022-12-26T04:00:05.929Z,8.60
2022-12-26T04:03:06.201Z,8.88
2022-12-26T04:06:01.467Z,8.23
2022-12-26T04:08:59.917Z,7.53
2022-12-26T04:11:52.129Z,8.00
2022-12-26T04:15:02.606Z,7.87
2022-12-26T04:18:01.167Z,7.25
2022-12-26T04:20:46.101Z,8.63
2022-12-26T04:23:41.736Z,7.60
2022-12-26T04:26:40.200Z,6.50
2022-12-26T04:29:30.999Z,6.28
2022-12-26T04:32:29.964Z,7.13
2022-12-26T04:35:24.234Z,5.80
2022-12-26T04:38:16.789Z,6.13
2022-12-26T04:41:10.699Z,5.35
2022-12-26T04:44:03.169Z,5.75
2022-12-26T04:46:39.097Z,4.95
2022-12-26T04:49:33.280Z,4.38
2022-12-26T04:52:09.373Z,5.40
2022-12-26T04:54:44.427Z,4.60
2022-12-26T04:57:17.508Z,4.28
2022-12-26T04:59:50.597Z,4.35
2022-12-26T05:02:41.292Z,4.18
2022-12-26T05:05:33.617Z,3.58
2022-12-26T05:08:24.542Z,3.90
2022-12-26T05:10:58.020Z,3.78
2022-12-26T05:13:30.948Z,4.07
2022-12-26T05:16:22.019Z,3.28
2022-12-26T05:19:12.867Z,3.65
2022-12-26T05:22:10.149Z,3.88
2022-12-26T05:25:02.340Z,3.67
2022-12-26T05:27:55.932Z,3.67
2022-12-26T05:33:19.259Z,4.25
2022-12-26T05:35:52.182Z,3.53
2022-12-26T05:38:26.457Z,3.90
2022-12-26T05:40:59.242Z,3.67
2022-12-26T05:43:32.280Z,4.30
2022-12-26T05:46:05.604Z,3.50
2022-12-26T05:48:38.634Z,3.90
2022-12-26T05:51:12.043Z,3.65
2022-12-26T05:53:48.384Z,3.47
2022-12-26T05:56:21.994Z,3.47
2022-12-26T05:58:56.009Z,3.70
2022-12-26T06:01:31.118Z,3.55
2022-12-26T06:04:04.881Z,3.92
2022-12-26T06:06:37.820Z,4.90
2022-12-26T06:11:48.943Z,3.40
2022-12-26T06:14:22.615Z,4.07
2022-12-26T06:16:57.314Z,4.00
2022-12-26T06:19:30.590Z,3.58
2022-12-26T06:22:03.910Z,4.00
2022-12-26T06:24:38.590Z,4.20
2022-12-26T06:27:12.148Z,3.53
2022-12-26T06:29:45.342Z,3.90
2022-12-26T06:32:18.587Z,3.65
2022-12-26T06:34:53.697Z,4.10
2022-12-26T06:37:26.928Z,3.92
2022-12-26T06:40:01.709Z,3.95
2022-12-26T06:42:34.846Z,3.63
2022-12-26T06:45:08.701Z,3.65
2022-12-26T06:47:44.346Z,3.78
2022-12-26T06:50:17.771Z,4.18
2022-12-26T06:52:51.436Z,4.20
2022-12-26T06:55:26.081Z,4.05
2022-12-26T06:57:59.453Z,3.80
2022-12-26T07:03:05.737Z,3.22
2022-12-26T07:05:39.967Z,4.35
2022-12-26T07:08:14.777Z,4.22
2022-12-26T07:10:49.227Z,3.85
2022-12-26T07:13:22.696Z,3.42
2022-12-26T07:15:55.782Z,4.10
2022-12-26T07:21:01.859Z,3.72
2022-12-26T07:26:10.590Z,4.70
2022-12-26T07:28:44.833Z,3.97
2022-12-26T07:31:18.905Z,3.92
2022-12-26T07:33:55.615Z,3.63
2022-12-26T07:36:30.210Z,3.05
2022-12-26T07:39:03.863Z,3.78
2022-12-26T07:41:59.550Z,3.97
2022-12-26T07:44:34.385Z,4.28
2022-12-26T07:47:07.612Z,4.60
2022-12-26T07:49:41.189Z,4.72
2022-12-26T07:52:14.483Z,3.58
2022-12-26T07:54:48.100Z,3.53
2022-12-26T07:57:48.317Z,3.70
2022-12-26T08:00:24.533Z,3.28
2022-12-26T08:03:04.749Z,3.67
2022-12-26T08:05:40.343Z,2.83
2022-12-26T08:08:15.042Z,3.92
2022-12-26T08:10:50.989Z,2.38
2022-12-26T08:13:25.673Z,2.55
2022-12-26T08:15:59.181Z,2.42
2022-12-26T08:18:32.847Z,2.35
2022-12-26T08:21:06.242Z,2.10
2022-12-26T08:23:39.897Z,2.03
2022-12-26T08:26:20.700Z,2.30
2022-12-26T08:29:02.171Z,1.70
2022-12-26T08:31:35.322Z,2.33
2022-12-26T08:34:08.641Z,2.20
2022-12-26T08:36:42.158Z,2.00
2022-12-26T08:39:15.215Z,2.47
2022-12-26T08:41:50.407Z,2.30
2022-12-26T08:44:30.411Z,2.17
2022-12-26T08:47:04.522Z,2.83
2022-12-26T08:49:37.941Z,2.83
2022-12-26T08:54:44.180Z,3.72
2022-12-26T08:57:18.689Z,3.15
2022-12-26T08:59:53.040Z,3.08
2022-12-26T09:02:26.719Z,2.20
2022-12-26T09:04:59.809Z,2.60
2022-12-26T09:07:33.233Z,3.70
2022-12-26T09:10:07.024Z,2.75
2022-12-26T09:12:40.221Z,2.75
2022-12-26T09:17:47.789Z,3.28
2022-12-26T09:20:20.629Z,3.05
2022-12-26T09:22:54.281Z,3.15
2022-12-26T09:25:27.389Z,3.15
2022-12-26T09:30:38.009Z,2.22
2022-12-26T09:33:10.831Z,2.40
2022-12-26T09:35:43.981Z,2.20
2022-12-26T09:38:16.865Z,2.35
2022-12-26T09:41:03.360Z,2.05
2022-12-26T09:43:54.292Z,2.40
2022-12-26T09:46:33.561Z,3.20
2022-12-26T09:49:12.377Z,2.60
2022-12-26T09:51:49.559Z,2.78
2022-12-26T09:54:32.461Z,1.95
2022-12-26T09:57:14.748Z,1.90
2022-12-26T09:59:54.199Z,2.10
2022-12-26T10:02:29.174Z,2.67
2022-12-26T10:05:02.175Z,2.92
2022-12-26T10:10:15.149Z,2.20
2022-12-26T10:12:57.839Z,2.40
2022-12-26T10:15:39.412Z,3.75
2022-12-26T10:18:36.120Z,3.42
2022-12-26T10:21:23.383Z,2.38
2022-12-26T10:24:01.753Z,2.10
2022-12-26T10:26:37.895Z,2.10
2022-12-26T10:29:20.126Z,2.35
2022-12-26T10:31:57.407Z,1.70
2022-12-26T10:34:36.848Z,2.03
2022-12-26T10:37:17.285Z,2.15
2022-12-26T10:39:54.727Z,2.13
2022-12-26T10:42:31.748Z,1.90
2022-12-26T10:45:16.386Z,1.73
2022-12-26T10:47:51.797Z,2.38
2022-12-26T10:50:30.204Z,2.53
2022-12-26T10:53:06.484Z,2.22
2022-12-26T10:55:39.302Z,2.42
2022-12-26T10:58:17.837Z,2.10
2022-12-26T11:00:50.949Z,1.77
2022-12-26T11:03:24.248Z,1.77
2022-12-26T11:06:08.982Z,1.83
2022-12-26T11:08:50.298Z,2.53
2022-12-26T11:11:25.973Z,1.33
2022-12-26T11:14:05.324Z,2.20
2022-12-26T11:16:41.281Z,1.42
2022-12-26T11:19:28.384Z,1.70
2022-12-26T11:22:23.866Z,1.75
2022-12-26T11:25:28.268Z,1.75
2022-12-26T11:28:20.370Z,1.63
2022-12-26T11:30:56.422Z,1.38
2022-12-26T11:33:34.787Z,1.60
2022-12-26T11:36:12.790Z,1.10
2022-12-26T11:38:51.082Z,1.60
2022-12-26T11:41:41.652Z,1.77
2022-12-26T11:44:20.111Z,1.30
2022-12-26T11:46:58.270Z,1.15
2022-12-26T11:49:35.790Z,1.20
2022-12-26T11:52:37.559Z,2.47
2022-12-26T11:55:29.505Z,2.25
2022-12-26T11:58:15.965Z,3.05
2022-12-26T12:01:08.101Z,2.25
2022-12-26T12:03:48.938Z,2.10
2022-12-26T12:06:47.252Z,1.88
2022-12-26T12:09:28.330Z,2.72
2022-12-26T12:12:11.687Z,1.70
2022-12-26T12:14:58.071Z,1.88
2022-12-26T12:17:39.554Z,1.83
2022-12-26T12:20:32.592Z,2.15
2022-12-26T12:23:27.437Z,2.15
2022-12-26T12:26:10.298Z,2.47
2022-12-26T12:29:12.997Z,2.00
2022-12-26T12:32:01.360Z,1.65
2022-12-26T12:34:52.906Z,1.30
2022-12-26T12:37:36.349Z,1.58
2022-12-26T12:40:26.329Z,1.77
2022-12-26T12:43:11.292Z,1.50
2022-12-26T12:45:52.206Z,1.77
2022-12-26T12:48:43.043Z,1.67
2022-12-26T12:51:28.165Z,1.15
2022-12-26T12:54:22.320Z,1.98
2022-12-26T12:57:06.212Z,1.10
2022-12-26T12:59:48.855Z,1.35
2022-12-26T13:02:29.426Z,1.40
2022-12-26T13:05:15.952Z,1.55
2022-12-26T13:07:55.799Z,1.20
2022-12-26T13:10:33.133Z,1.30
2022-12-26T13:13:16.995Z,1.48
2022-12-26T13:15:53.980Z,1.48
2022-12-26T13:18:32.533Z,0.90
2022-12-26T13:21:11.558Z,1.33
2022-12-26T13:24:05.771Z,0.88
2022-12-26T13:26:42.518Z,1.23
2022-12-26T13:29:20.276Z,1.25
2022-12-26T13:31:53.904Z,1.33
2022-12-26T13:34:27.630Z,1.40
2022-12-26T13:37:02.566Z,1.63
2022-12-26T13:39:41.487Z,1.95
2022-12-26T13:42:38.743Z,1.70
2022-12-26T13:45:58.095Z,1.70
2022-12-26T13:49:08.284Z,1.70
2022-12-26T13:51:50.472Z,1.10
2022-12-26T13:54:27.393Z,1.58
2022-12-26T13:57:28.186Z,1.55
2022-12-26T14:00:09.536Z,1.20
2022-12-26T14:03:19.496Z,0.95
2022-12-26T14:06:27.280Z,1.85
2022-12-26T14:09:21.671Z,1.95
2022-12-26T14:12:25.586Z,1.25
2022-12-26T14:15:09.767Z,1.95
2022-12-26T14:17:56.586Z,1.45
2022-12-26T14:20:41.178Z,1.23
2022-12-26T14:23:30.729Z,1.48
2022-12-26T14:26:08.959Z,1.98
2022-12-26T14:28:56.439Z,2.50
2022-12-26T14:31:38.650Z,1.38
2022-12-26T14:34:24.526Z,1.90
2022-12-26T14:37:02.812Z,1.60
2022-12-26T14:39:45.569Z,1.48
2022-12-26T14:42:42.029Z,1.40
2022-12-26T14:45:41.820Z,1.42
2022-12-26T14:48:51.837Z,1.45
2022-12-26T14:51:47.017Z,2.28
2022-12-26T14:54:38.197Z,2.00
2022-12-26T14:57:48.686Z,1.63
2022-12-26T15:00:38.294Z,2.28
2022-12-26T15:03:50.273Z,1.60
2022-12-26T15:06:52.383Z,1.85
2022-12-26T15:09:51.294Z,1.70
2022-12-26T15:13:01.823Z,1.42
2022-12-26T15:15:46.041Z,2.60
2022-12-26T15:18:51.735Z,1.20
2022-12-26T15:21:49.611Z,1.42
2022-12-26T15:25:18.204Z,1.42
2022-12-26T15:28:11.994Z,1.50
2022-12-26T15:31:14.199Z,1.88
2022-12-26T15:33:53.791Z,2.08
2022-12-26T15:36:34.970Z,1.80
2022-12-26T15:39:22.903Z,3.28
2022-12-26T15:42:14.264Z,2.25
2022-12-26T15:44:57.236Z,2.60
2022-12-26T15:47:38.888Z,2.20
2022-12-26T15:50:25.448Z,2.40
2022-12-26T15:53:12.008Z,2.72
2022-12-26T15:56:05.348Z,1.55
2022-12-26T16:01:41.042Z,2.08
2022-12-26T16:04:25.005Z,2.05
2022-12-26T16:07:09.975Z,3.05
2022-12-26T16:09:45.216Z,2.03
2022-12-26T16:12:25.451Z,3.78
2022-12-26T16:15:19.367Z,3.30
2022-12-26T16:17:52.805Z,2.22
2022-12-26T16:20:51.272Z,2.00
2022-12-26T16:23:29.669Z,2.15
2022-12-26T16:26:02.930Z,2.53
2022-12-26T16:28:38.630Z,2.05
2022-12-26T16:31:20.890Z,2.22
2022-12-26T16:33:56.815Z,1.30
2022-12-26T16:36:35.808Z,2.30
2022-12-26T16:39:10.889Z,1.63
2022-12-26T16:42:00.357Z,2.25
2022-12-26T16:44:37.985Z,1.67
2022-12-26T16:47:14.722Z,1.75
2022-12-26T16:49:48.414Z,2.03
2022-12-26T16:52:38.087Z,1.67
2022-12-26T16:55:39.085Z,1.45
2022-12-26T16:58:19.198Z,1.98
2022-12-26T17:01:03.244Z,2.00
2022-12-26T17:03:45.153Z,2.08
2022-12-26T17:06:24.608Z,1.67
2022-12-26T17:09:01.708Z,1.63
2022-12-26T17:11:37.484Z,2.28
2022-12-26T17:14:19.143Z,1.77
2022-12-26T17:16:58.777Z,2.45
2022-12-26T17:19:36.400Z,1.55
2022-12-26T17:22:23.363Z,1.48
2022-12-26T17:25:21.390Z,2.50
2022-12-26T17:28:24.791Z,2.15
2022-12-26T17:30:57.835Z,1.58
2022-12-26T17:33:35.012Z,2.45
2022-12-26T17:39:13.810Z,2.45
2022-12-26T17:41:52.619Z,2.10
2022-12-26T17:44:36.549Z,2.38
2022-12-26T17:47:21.767Z,2.85
2022-12-26T17:49:55.878Z,2.13
2022-12-26T17:52:30.609Z,2.20
2022-12-26T17:55:07.807Z,2.05
2022-12-26T17:57:40.660Z,1.70
2022-12-26T18:00:17.397Z,2.35
2022-12-26T18:02:50.553Z,1.88
2022-12-26T18:05:23.823Z,1.85
2022-12-26T18:07:58.238Z,1.63
2022-12-26T18:10:34.166Z,2.00
2022-12-26T18:13:10.560Z,2.08
2022-12-26T18:15:44.344Z,1.45
2022-12-26T18:18:25.828Z,2.08
2022-12-26T18:21:01.772Z,1.95
2022-12-26T18:23:42.430Z,2.00
2022-12-26T18:26:27.840Z,1.50
2022-12-26T18:31:34.019Z,1.38
2022-12-26T18:34:08.218Z,2.65
2022-12-26T18:36:43.268Z,1.45
2022-12-26T18:39:18.333Z,1.92
2022-12-26T18:41:51.409Z,2.50
2022-12-26T18:44:24.387Z,1.60
2022-12-26T18:49:42.556Z,1.67
2022-12-26T18:52:17.462Z,1.83
2022-12-26T18:54:55.488Z,2.20
2022-12-26T18:57:30.900Z,2.13
2022-12-26T19:00:06.723Z,2.25
2022-12-26T19:02:43.413Z,1.75
2022-12-26T19:05:22.634Z,1.73
2022-12-26T19:07:57.363Z,1.45
2022-12-26T19:10:35.051Z,1.17
2022-12-26T19:13:11.704Z,2.30
2022-12-26T19:15:50.800Z,1.45
2022-12-26T19:18:26.010Z,2.03
2022-12-26T19:21:01.824Z,1.63
2022-12-26T19:23:36.178Z,2.95
2022-12-26T19:26:11.595Z,2.30
2022-12-26T19:28:46.771Z,1.77
2022-12-26T19:31:23.941Z,1.65
2022-12-26T19:34:00.539Z,2.25
2022-12-26T19:36:33.951Z,1.85
2022-12-26T19:39:09.219Z,2.03
2022-12-26T19:41:43.870Z,1.83
2022-12-26T19:44:20.048Z,2.22
2022-12-26T19:47:12.390Z,1.98
2022-12-26T19:49:50.675Z,1.70
2022-12-26T19:52:27.233Z,1.75
2022-12-26T19:55:00.605Z,1.50
2022-12-26T19:57:37.039Z,1.88
2022-12-26T20:00:13.700Z,1.80
2022-12-26T20:02:50.030Z,1.58
2022-12-26T20:05:24.746Z,2.17
2022-12-26T20:07:57.976Z,2.85
2022-12-26T20:10:31.467Z,1.55
2022-12-26T20:13:06.073Z,1.48
2022-12-26T20:15:39.150Z,2.17
2022-12-26T20:18:15.030Z,1.70
2022-12-26T20:20:57.239Z,2.13
2022-12-26T20:23:33.533Z,1.67
2022-12-26T20:26:12.572Z,2.15
2022-12-26T20:28:47.534Z,1.70
2022-12-26T20:31:22.295Z,1.90
2022-12-26T20:33:57.896Z,2.25
2022-12-26T20:36:33.760Z,2.22
2022-12-26T20:39:11.609Z,2.08
2022-12-26T20:41:47.476Z,2.05
2022-12-26T20:44:22.464Z,2.03
2022-12-26T20:46:58.880Z,1.73
2022-12-26T20:49:34.896Z,2.88
2022-12-26T20:52:11.750Z,2.53
2022-12-26T20:54:45.981Z,1.83
2022-12-26T20:57:19.637Z,1.88
2022-12-26T20:59:54.285Z,2.83
2022-12-26T21:02:30.704Z,2.00
2022-12-26T21:05:04.147Z,2.05
2022-12-26T21:07:37.526Z,2.03
2022-12-26T21:10:12.051Z,2.47
2022-12-26T21:12:52.483Z,1.90
2022-12-26T21:15:30.034Z,1.75
2022-12-26T21:18:03.799Z,1.73
2022-12-26T21:20:42.296Z,2.38
2022-12-26T21:23:15.830Z,2.20
2022-12-26T21:25:48.752Z,2.13
2022-12-26T21:30:56.300Z,2.00
2022-12-26T21:33:30.926Z,3.08
2022-12-26T21:36:09.753Z,1.88
2022-12-26T21:38:43.144Z,2.13
2022-12-26T21:41:16.760Z,2.78
2022-12-26T21:43:50.687Z,2.40
2022-12-26T21:46:24.906Z,1.70
2022-12-26T21:48:58.240Z,1.88
2022-12-26T21:51:32.306Z,2.42
2022-12-26T21:54:25.087Z,1.70
2022-12-26T21:56:57.955Z,2.58
2022-12-26T21:59:48.371Z,2.45
2022-12-26T22:02:40.270Z,1.50
2022-12-26T22:05:13.560Z,1.88
2022-12-26T22:07:46.868Z,1.98
2022-12-26T22:10:38.328Z,1.60
2022-12-26T22:13:11.374Z,1.98
2022-12-26T22:18:41.203Z,1.80
2022-12-26T22:21:16.475Z,2.30
2022-12-26T22:23:50.815Z,3.05
2022-12-26T22:26:24.968Z,2.35
2022-12-26T22:28:59.816Z,2.10
2022-12-26T22:31:34.771Z,2.03
2022-12-26T22:34:12.230Z,2.80
2022-12-26T22:36:45.194Z,2.05
2022-12-26T22:41:50.839Z,1.85
2022-12-26T22:44:24.295Z,1.70
2022-12-26T22:46:57.890Z,1.90
2022-12-26T22:49:32.100Z,1.90
2022-12-26T22:52:05.847Z,2.35
2022-12-26T22:54:41.428Z,2.80
2022-12-26T22:57:15.218Z,1.88
2022-12-26T23:02:41.026Z,2.03
2022-12-26T23:07:49.543Z,2.42
2022-12-26T23:10:25.034Z,2.15
2022-12-26T23:12:58.757Z,2.15
2022-12-26T23:15:32.049Z,1.83
2022-12-26T23:18:43.253Z,1.73
2022-12-26T23:21:39.809Z,2.63
2022-12-26T23:24:16.142Z,2.70
2022-12-26T23:26:51.651Z,2.10
2022-12-26T23:29:43.400Z,2.17
2022-12-26T23:32:16.499Z,2.30
2022-12-26T23:37:23.406Z,2.20
2022-12-26T23:39:56.280Z,1.90
2022-12-26T23:42:29.167Z,1.95
2022-12-26T23:47:37.591Z,2.10
2022-12-26T23:50:11.990Z,2.50
2022-12-26T23:52:46.321Z,2.85
2022-12-26T23:55:20.426Z,1.88
2022-12-26T23:57:53.227Z,2.75
